createdAt,value
2023-04-23T00:00:49.924Z,12.10
2023-04-23T00:05:47.580Z,11.27
2023-04-23T00:10:44.852Z,12.20
2023-04-23T00:15:41.631Z,10.23
2023-04-23T00:20:38.299Z,11.57
2023-04-23T00:25:34.787Z,12.25
2023-04-23T00:30:31.267Z,11.48
2023-04-23T00:35:27.723Z,11.70
2023-04-23T00:40:24.332Z,14.15
2023-04-23T00:45:21.068Z,13.68
2023-04-23T00:50:17.906Z,14.13
2023-04-23T00:55:14.303Z,13.07
2023-04-23T01:00:13.913Z,14.02
2023-04-23T01:05:11.381Z,12.48
2023-04-23T01:10:08.489Z,14.65
2023-04-23T01:15:06.006Z,14.93
2023-04-23T01:20:02.585Z,14.75
2023-04-23T01:24:59.014Z,15.50
2023-04-23T01:29:56.124Z,17.27
2023-04-23T01:34:54.305Z,14.95
2023-04-23T01:39:51.716Z,14.70
2023-04-23T01:44:48.226Z,13.77
2023-04-23T01:49:44.931Z,14.88
2023-04-23T01:54:41.676Z,15.80
2023-04-23T01:59:39.348Z,15.68
2023-04-23T02:04:37.040Z,15.88
2023-04-23T02:09:33.542Z,17.13
2023-04-23T02:14:30.320Z,20.50
2023-04-23T02:19:27.806Z,26.13
2023-04-23T02:24:24.275Z,26.52
2023-04-23T02:29:21.156Z,29.40
2023-04-23T02:34:20.138Z,31.92
2023-04-23T02:39:16.634Z,30.77
2023-04-23T02:44:13.100Z,29.17
2023-04-23T02:49:09.780Z,29.98
2023-04-23T02:54:06.237Z,28.67
2023-04-23T02:59:02.857Z,31.55
2023-04-23T03:03:59.811Z,30.77
2023-04-23T03:08:56.349Z,27.95
2023-04-23T03:13:52.763Z,27.08
2023-04-23T03:18:49.223Z,24.02
2023-04-23T03:23:45.703Z,31.08
2023-04-23T03:28:42.209Z,27.05
2023-04-23T03:33:38.597Z,26.23
2023-04-23T03:38:35.112Z,23.20
2023-04-23T03:43:31.556Z,22.30
2023-04-23T03:48:28.025Z,23.05
2023-04-23T03:53:24.446Z,23.10
2023-04-23T03:58:21.254Z,20.55
2023-04-23T04:03:18.064Z,25.60
2023-04-23T04:08:14.615Z,21.60
2023-04-23T04:13:11.042Z,21.55
2023-04-23T04:18:07.481Z,20.73
2023-04-23T04:23:03.867Z,20.08
2023-04-23T04:28:00.398Z,19.15
2023-04-23T04:32:56.837Z,19.45
2023-04-23T04:37:54.266Z,16.85
2023-04-23T04:42:52.848Z,15.70
2023-04-23T04:47:49.316Z,15.65
2023-04-23T04:52:45.878Z,16.75
2023-04-23T04:57:42.344Z,13.50
2023-04-23T05:02:38.902Z,15.68
2023-04-23T05:07:35.429Z,15.00
2023-04-23T05:12:31.812Z,16.10
2023-04-23T05:17:28.247Z,14.85
2023-04-23T05:22:24.783Z,14.13
2023-04-23T05:27:21.243Z,13.30
2023-04-23T05:32:17.707Z,15.13
2023-04-23T05:37:14.270Z,16.35
2023-04-23T05:42:11.231Z,10.55
2023-04-23T05:47:09.003Z,12.60
2023-04-23T05:52:05.916Z,10.95
2023-04-23T05:57:02.892Z,13.68
2023-04-23T06:01:59.769Z,10.52
2023-04-23T06:06:56.243Z,11.20
2023-04-23T06:11:53.486Z,11.32
2023-04-23T06:16:49.914Z,12.63
2023-04-23T06:21:46.431Z,10.88
2023-04-23T06:26:42.851Z,10.55
2023-04-23T06:31:39.984Z,10.73
2023-04-23T06:36:36.514Z,10.00
2023-04-23T06:41:33.054Z,10.07
2023-04-23T06:46:29.577Z,8.30
2023-04-23T06:51:27.714Z,11.00
2023-04-23T06:56:24.748Z,7.72
2023-04-23T07:01:21.404Z,8.23
2023-04-23T07:06:17.984Z,9.85
2023-04-23T07:11:14.900Z,8.60
2023-04-23T07:16:11.370Z,8.82
2023-04-23T07:21:07.833Z,8.98
2023-04-23T07:26:04.287Z,11.23
2023-04-23T07:31:02.144Z,10.98
2023-04-23T07:35:58.618Z,9.30
2023-04-23T07:40:55.021Z,10.80
2023-04-23T07:45:51.615Z,9.88
2023-04-23T07:50:48.550Z,11.15
2023-04-23T07:55:45.279Z,8.80
2023-04-23T08:00:41.729Z,9.25
2023-04-23T08:05:39.143Z,16.25
2023-04-23T08:10:35.876Z,11.20
2023-04-23T08:15:32.268Z,12.50
2023-04-23T08:20:28.819Z,13.50
2023-04-23T08:25:25.418Z,15.68
2023-04-23T08:30:21.863Z,10.27
2023-04-23T08:35:18.366Z,13.25
2023-04-23T08:40:15.407Z,11.70
2023-04-23T08:45:13.303Z,14.10
2023-04-23T08:50:19.933Z,12.25
2023-04-23T08:55:16.588Z,12.77
2023-04-23T09:00:15.371Z,10.85
2023-04-23T09:05:12.419Z,11.35
2023-04-23T09:10:16.881Z,11.75
2023-04-23T09:15:14.832Z,12.05
2023-04-23T09:20:12.712Z,9.43
2023-04-23T09:25:10.879Z,9.85
2023-04-23T09:30:10.608Z,10.57
2023-04-23T09:35:09.041Z,11.82
2023-04-23T09:40:09.367Z,9.63
2023-04-23T09:45:07.327Z,9.88
2023-04-23T09:50:05.127Z,9.85
2023-04-23T09:55:02.647Z,9.82
2023-04-23T10:00:07.298Z,10.02
2023-04-23T10:05:24.438Z,12.32
2023-04-23T10:10:25.201Z,9.57
2023-04-23T10:15:23.596Z,8.95
2023-04-23T10:20:22.539Z,9.45
2023-04-23T10:25:20.012Z,10.05
2023-04-23T10:30:17.146Z,8.88
2023-04-23T10:35:13.641Z,9.82
2023-04-23T10:40:14.097Z,11.15
2023-04-23T10:45:24.102Z,11.57
2023-04-23T10:50:29.810Z,11.38
2023-04-23T10:55:28.329Z,12.20
2023-04-23T11:00:26.544Z,12.15
2023-04-23T11:05:25.441Z,10.73
2023-04-23T11:10:25.168Z,14.05
2023-04-23T11:15:21.820Z,11.90
2023-04-23T11:20:22.358Z,11.65
2023-04-23T11:25:24.081Z,11.95
2023-04-23T11:30:23.239Z,11.70
2023-04-23T11:35:21.848Z,10.93
2023-04-23T11:40:20.113Z,11.15
2023-04-23T11:45:24.775Z,15.63
2023-04-23T11:50:33.199Z,11.18
2023-04-23T11:55:30.298Z,10.90
2023-04-23T12:00:27.500Z,12.30
2023-04-23T12:05:39.290Z,10.27
2023-04-23T12:10:52.333Z,11.60
2023-04-23T12:15:59.610Z,10.68
2023-04-23T12:20:57.663Z,10.40
2023-04-23T12:25:54.892Z,8.80
2023-04-23T12:30:52.050Z,9.10
2023-04-23T12:35:51.578Z,9.57
2023-04-23T12:40:48.114Z,7.47
2023-04-23T12:45:45.462Z,8.07
2023-04-23T12:50:42.182Z,8.15
2023-04-23T12:55:39.538Z,8.00
2023-04-23T13:00:35.971Z,7.22
2023-04-23T13:05:32.649Z,7.47
2023-04-23T13:10:30.846Z,7.95
2023-04-23T13:15:27.415Z,7.90
2023-04-23T13:20:25.221Z,6.30
2023-04-23T13:25:22.715Z,7.15
2023-04-23T13:30:19.225Z,6.80
2023-04-23T13:35:17.015Z,7.47
2023-04-23T13:40:13.894Z,7.57
2023-04-23T13:45:11.345Z,8.93
2023-04-23T13:50:10.308Z,6.07
2023-04-23T13:55:07.571Z,6.00
2023-04-23T14:00:05.043Z,7.10
2023-04-23T14:05:03.773Z,6.40
2023-04-23T14:10:00.697Z,6.22
2023-04-23T14:14:57.176Z,8.15
2023-04-23T14:19:53.606Z,5.88
2023-04-23T14:24:51.413Z,5.80
2023-04-23T14:29:54.475Z,6.07
2023-04-23T14:34:51.254Z,5.13
2023-04-23T14:39:47.821Z,13.73
2023-04-23T14:44:44.362Z,8.07
2023-04-23T14:49:41.897Z,6.90
2023-04-23T14:54:38.781Z,6.07
2023-04-23T14:59:35.437Z,5.45
2023-04-23T15:04:32.023Z,7.22
2023-04-23T15:09:28.636Z,9.13
2023-04-23T15:14:33.051Z,6.93
2023-04-23T15:19:31.267Z,6.93
2023-04-23T15:24:27.960Z,5.95
2023-04-23T15:29:24.629Z,7.43
2023-04-23T15:34:21.252Z,8.75
2023-04-23T15:39:17.713Z,7.00
2023-04-23T15:44:14.342Z,6.40
2023-04-23T15:49:11.012Z,5.72
2023-04-23T15:54:08.703Z,5.43
2023-04-23T15:59:06.027Z,5.80
2023-04-23T16:09:03.453Z,5.97
2023-04-23T16:14:00.014Z,6.45
2023-04-23T16:18:57.688Z,6.22
2023-04-23T16:23:54.502Z,7.10
2023-04-23T16:29:05.838Z,5.05
2023-04-23T16:34:08.702Z,6.15
2023-04-23T16:39:05.385Z,7.05
2023-04-23T16:44:01.853Z,6.80
2023-04-23T16:48:58.536Z,6.30
2023-04-23T16:53:56.293Z,8.63
2023-04-23T16:58:52.890Z,8.48
2023-04-23T17:03:49.502Z,7.30
2023-04-23T17:08:46.349Z,8.32
2023-04-23T17:13:45.857Z,6.90
2023-04-23T17:18:42.348Z,8.30
2023-04-23T17:23:39.064Z,11.75
2023-04-23T17:28:35.624Z,9.48
2023-04-23T17:33:32.147Z,9.60
2023-04-23T17:38:29.321Z,10.20
2023-04-23T17:43:25.853Z,11.02
2023-04-23T17:48:23.249Z,9.30
2023-04-23T17:53:20.930Z,10.02
2023-04-23T17:58:19.282Z,10.80
2023-04-23T18:03:18.691Z,10.00
2023-04-23T18:08:17.224Z,10.70
2023-04-23T18:13:13.897Z,9.55
2023-04-23T18:18:10.443Z,12.07
2023-04-23T18:23:07.969Z,9.27
2023-04-23T18:28:04.524Z,10.25
2023-04-23T18:33:21.371Z,11.75
2023-04-23T18:38:29.506Z,11.05
2023-04-23T18:43:28.249Z,9.85
2023-04-23T18:48:33.662Z,9.88
2023-04-23T18:53:30.604Z,10.35
2023-04-23T18:58:29.153Z,9.70
2023-04-23T19:03:28.965Z,9.95
2023-04-23T19:08:28.741Z,9.43
2023-04-23T19:13:25.399Z,10.25
2023-04-23T19:18:22.269Z,9.95
2023-04-23T19:23:19.266Z,10.48
2023-04-23T19:28:19.576Z,10.15
2023-04-23T19:33:16.225Z,11.10
2023-04-23T19:38:12.863Z,11.23
2023-04-23T19:43:11.461Z,15.68
2023-04-23T19:48:09.596Z,10.98
2023-04-23T19:53:06.272Z,9.98
2023-04-23T19:58:06.415Z,10.85
2023-04-23T20:03:03.341Z,12.40
2023-04-23T20:08:01.123Z,12.10
2023-04-23T20:12:59.537Z,10.60
2023-04-23T20:17:56.184Z,11.20
2023-04-23T20:22:52.755Z,10.80
2023-04-23T20:27:50.643Z,10.32
2023-04-23T20:32:47.211Z,10.38
2023-04-23T20:37:43.841Z,10.52
2023-04-23T20:42:40.262Z,11.15
2023-04-23T20:47:36.760Z,10.50
2023-04-23T20:52:33.418Z,9.25
2023-04-23T20:57:29.868Z,9.15
2023-04-23T21:02:26.415Z,10.00
2023-04-23T21:07:22.912Z,9.90
2023-04-23T21:12:19.447Z,11.10
2023-04-23T21:17:16.037Z,8.82
2023-04-23T21:22:12.497Z,8.95
2023-04-23T21:27:12.014Z,9.20
2023-04-23T21:32:09.428Z,8.07
2023-04-23T21:37:05.900Z,8.68
2023-04-23T21:42:02.415Z,8.63
2023-04-23T21:46:58.912Z,9.35
2023-04-23T21:51:56.011Z,8.93
2023-04-23T21:56:53.012Z,10.15
2023-04-23T22:01:49.534Z,9.95
2023-04-23T22:06:46.514Z,9.45
2023-04-23T22:11:55.283Z,9.52
2023-04-23T22:17:01.903Z,9.45
2023-04-23T22:21:58.474Z,8.95
2023-04-23T22:26:55.086Z,8.75
2023-04-23T22:31:51.552Z,8.70
2023-04-23T22:36:48.050Z,11.00
2023-04-23T22:41:44.515Z,10.07
2023-04-23T22:46:41.121Z,9.30
2023-04-23T22:51:39.087Z,9.82
2023-04-23T22:56:35.778Z,9.00
2023-04-23T23:01:32.551Z,8.55
2023-04-23T23:06:28.947Z,9.05
2023-04-23T23:11:28.693Z,8.52
2023-04-23T23:16:25.425Z,8.48
2023-04-23T23:21:21.971Z,9.75
2023-04-23T23:26:18.470Z,8.25
2023-04-23T23:31:15.030Z,9.05
2023-04-23T23:36:11.931Z,7.70
2023-04-23T23:41:08.334Z,7.50
2023-04-23T23:46:05.095Z,7.35
2023-04-23T23:51:01.721Z,10.88
2023-04-23T23:55:59.999Z,8.18
